createdAt,value
2017-12-30T00:02:25.253Z,26.80
2017-12-30T00:04:56.682Z,26.80
2017-12-30T00:07:27.088Z,26.80
2017-12-30T00:09:57.755Z,26.80
2017-12-30T00:12:28.880Z,26.80
2017-12-30T00:14:59.193Z,26.80
2017-12-30T00:17:29.556Z,26.80
2017-12-30T00:20:00.636Z,26.80
2017-12-30T00:22:32.045Z,26.80
2017-12-30T00:25:03.128Z,26.80
2017-12-30T00:27:33.464Z,26.80
2017-12-30T00:30:03.780Z,26.80
2017-12-30T00:32:34.128Z,26.90
2017-12-30T00:35:04.447Z,26.90
2017-12-30T00:37:34.751Z,27.00
2017-12-30T00:40:05.339Z,27.00
2017-12-30T00:42:36.486Z,27.10
2017-12-30T00:45:07.580Z,27.10
2017-12-30T00:47:37.909Z,27.10
2017-12-30T00:50:08.255Z,27.20
2017-12-30T00:52:38.896Z,27.30
2017-12-30T00:55:09.250Z,27.30
2017-12-30T00:57:39.853Z,27.40
2017-12-30T01:00:10.288Z,27.40
2017-12-30T01:02:41.362Z,27.50
2017-12-30T01:05:11.711Z,27.50
2017-12-30T01:07:42.146Z,27.50
2017-12-30T01:10:12.703Z,27.60
2017-12-30T01:12:43.076Z,27.60
2017-12-30T01:15:13.438Z,27.60
2017-12-30T01:17:43.776Z,27.70
2017-12-30T01:20:14.077Z,27.70
2017-12-30T01:22:44.726Z,27.70
2017-12-30T01:25:16.089Z,27.70
2017-12-30T01:27:47.436Z,27.70
2017-12-30T01:30:18.642Z,27.70
2017-12-30T01:32:48.975Z,27.70
2017-12-30T01:35:19.317Z,27.70
2017-12-30T01:37:49.648Z,27.70
2017-12-30T01:40:20.285Z,27.70
2017-12-30T01:42:51.557Z,27.70
2017-12-30T01:45:21.896Z,27.70
2017-12-30T01:47:52.251Z,27.80
2017-12-30T01:50:22.574Z,27.80
2017-12-30T01:52:52.976Z,27.80
2017-12-30T01:55:23.342Z,27.90
2017-12-30T01:57:53.986Z,27.90
2017-12-30T02:00:30.362Z,28.00
2017-12-30T02:03:01.531Z,28.00
2017-12-30T02:05:31.872Z,28.00
2017-12-30T02:08:02.220Z,28.00
2017-12-30T02:10:32.850Z,28.10
2017-12-30T02:13:03.264Z,28.00
2017-12-30T02:15:33.564Z,28.00
2017-12-30T02:18:03.954Z,28.00
2017-12-30T02:20:35.043Z,28.10
2017-12-30T02:23:05.370Z,28.10
2017-12-30T02:25:35.738Z,28.10
2017-12-30T02:28:06.274Z,28.20
2017-12-30T02:30:37.384Z,28.30
2017-12-30T02:33:07.711Z,28.40
2017-12-30T02:35:38.057Z,28.50
2017-12-30T02:38:08.401Z,28.60
2017-12-30T02:40:39.699Z,28.80
2017-12-30T02:43:10.081Z,28.80
2017-12-30T02:45:40.764Z,28.80
2017-12-30T02:48:11.874Z,29.00
2017-12-30T02:50:42.168Z,29.00
2017-12-30T02:53:13.277Z,29.10
2017-12-30T02:55:43.641Z,29.10
2017-12-30T02:58:14.930Z,29.30
2017-12-30T03:00:46.104Z,29.30
2017-12-30T03:03:16.431Z,29.30
2017-12-30T03:05:46.739Z,29.40
2017-12-30T03:08:17.109Z,29.40
2017-12-30T03:10:47.716Z,29.50
2017-12-30T03:13:18.105Z,29.50
2017-12-30T03:15:48.672Z,29.50
2017-12-30T03:18:19.771Z,29.60
2017-12-30T03:20:50.107Z,29.60
2017-12-30T03:23:20.454Z,29.70
2017-12-30T03:25:50.788Z,29.80
2017-12-30T03:28:21.316Z,29.90
2017-12-30T03:30:51.610Z,30.00
2017-12-30T03:33:22.136Z,30.00
2017-12-30T03:35:52.503Z,30.00
2017-12-30T03:38:23.631Z,30.10
2017-12-30T03:40:53.959Z,30.00
2017-12-30T03:43:24.327Z,30.00
2017-12-30T03:45:54.837Z,30.10
2017-12-30T03:48:25.221Z,30.10
2017-12-30T03:50:55.533Z,30.10
2017-12-30T03:53:25.859Z,30.10
2017-12-30T03:55:56.187Z,30.20
2017-12-30T03:58:26.639Z,30.30
2017-12-30T04:00:57.798Z,30.50
2017-12-30T04:03:29.028Z,30.60
2017-12-30T04:05:59.412Z,30.50
2017-12-30T04:08:29.783Z,30.70
2017-12-30T04:11:01.071Z,30.90
2017-12-30T04:13:31.470Z,30.90
2017-12-30T04:16:02.902Z,31.00
2017-12-30T04:18:33.282Z,31.00
2017-12-30T04:21:03.652Z,31.10
2017-12-30T04:23:34.814Z,31.10
2017-12-30T04:26:05.934Z,31.10
2017-12-30T04:28:36.885Z,31.00
2017-12-30T04:31:08.096Z,31.10
2017-12-30T04:33:38.762Z,31.10
2017-12-30T04:36:09.994Z,31.10
2017-12-30T04:38:40.343Z,31.00
2017-12-30T04:41:11.431Z,30.90
2017-12-30T04:43:41.750Z,30.90
2017-12-30T04:46:12.220Z,30.90
2017-12-30T04:48:43.364Z,30.90
2017-12-30T04:51:13.713Z,30.80
2017-12-30T04:53:44.059Z,30.90
2017-12-30T04:56:14.359Z,30.90
2017-12-30T04:58:45.692Z,31.00
2017-12-30T05:01:16.780Z,31.10
2017-12-30T05:03:47.356Z,31.10
2017-12-30T05:06:18.464Z,31.20
2017-12-30T05:08:48.820Z,31.20
2017-12-30T05:11:19.178Z,31.30
2017-12-30T05:13:49.504Z,31.40
2017-12-30T05:16:20.107Z,31.40
2017-12-30T05:18:51.186Z,31.50
2017-12-30T05:21:21.882Z,31.40
2017-12-30T05:23:53.063Z,31.60
2017-12-30T05:26:23.394Z,31.60
2017-12-30T05:28:53.738Z,31.60
2017-12-30T05:31:24.104Z,31.70
2017-12-30T05:33:55.554Z,31.90
2017-12-30T05:36:26.645Z,31.80
2017-12-30T05:38:56.964Z,31.80
2017-12-30T05:41:27.320Z,31.80
2017-12-30T05:43:57.683Z,31.70
2017-12-30T05:46:29.077Z,31.50
2017-12-30T05:48:59.414Z,31.50
2017-12-30T05:51:29.929Z,31.50
2017-12-30T05:54:01.076Z,31.40
2017-12-30T05:56:31.482Z,31.40
2017-12-30T05:59:01.842Z,31.50
2017-12-30T06:01:32.185Z,31.50
2017-12-30T06:04:02.712Z,31.60
2017-12-30T06:06:33.804Z,31.60
2017-12-30T06:09:04.328Z,31.60
2017-12-30T06:11:34.640Z,31.60
2017-12-30T06:14:04.978Z,31.60
2017-12-30T06:16:36.382Z,31.80
2017-12-30T06:19:07.488Z,31.80
2017-12-30T06:21:38.056Z,31.70
2017-12-30T06:24:09.338Z,31.90
2017-12-30T06:26:39.689Z,31.90
2017-12-30T06:29:10.042Z,32.00
2017-12-30T06:31:40.385Z,32.00
2017-12-30T06:34:11.722Z,32.10
2017-12-30T06:36:42.827Z,32.10
2017-12-30T06:39:13.206Z,32.10
2017-12-30T06:41:44.361Z,32.00
2017-12-30T06:44:14.720Z,32.00
2017-12-30T06:46:45.101Z,32.00
2017-12-30T06:49:16.199Z,32.20
2017-12-30T06:51:46.755Z,32.20
2017-12-30T06:54:17.823Z,32.20
2017-12-30T06:56:48.243Z,32.20
2017-12-30T06:59:19.307Z,32.30
2017-12-30T07:01:49.649Z,32.40
2017-12-30T07:04:20.330Z,32.40
2017-12-30T07:06:51.555Z,32.50
2017-12-30T07:09:22.064Z,32.50
2017-12-30T07:11:52.437Z,32.50
2017-12-30T07:14:23.633Z,32.50
2017-12-30T07:16:54.032Z,32.50
2017-12-30T07:19:24.489Z,32.50
2017-12-30T07:21:55.050Z,32.60
2017-12-30T07:24:26.202Z,32.70
2017-12-30T07:26:57.301Z,32.80
2017-12-30T07:29:27.770Z,32.80
2017-12-30T07:31:59.084Z,32.80
2017-12-30T07:34:29.746Z,32.80
2017-12-30T07:37:00.838Z,32.80
2017-12-30T07:39:31.415Z,32.80
2017-12-30T07:42:02.704Z,32.80
2017-12-30T07:44:33.040Z,32.80
2017-12-30T07:47:03.419Z,32.90
2017-12-30T07:49:34.558Z,32.90
2017-12-30T07:52:05.797Z,32.80
2017-12-30T07:54:36.926Z,32.80
2017-12-30T07:57:07.354Z,32.80
2017-12-30T07:59:37.743Z,32.80
2017-12-30T08:02:08.037Z,32.80
2017-12-30T08:04:39.468Z,32.80
2017-12-30T08:07:09.857Z,32.80
2017-12-30T08:09:40.424Z,32.70
2017-12-30T08:12:11.521Z,32.70
2017-12-30T08:14:41.844Z,32.70
2017-12-30T08:17:12.179Z,32.70
2017-12-30T08:19:42.531Z,32.60
2017-12-30T08:22:13.069Z,32.60
2017-12-30T08:24:44.145Z,32.60
2017-12-30T08:27:14.481Z,32.60
2017-12-30T08:29:44.824Z,32.50
2017-12-30T08:32:15.131Z,32.50
2017-12-30T08:34:45.461Z,32.50
2017-12-30T08:37:15.787Z,32.40
2017-12-30T08:39:46.323Z,32.30
2017-12-30T08:42:16.688Z,32.30
2017-12-30T08:44:47.788Z,32.30
2017-12-30T08:47:18.158Z,32.20
2017-12-30T08:49:49.246Z,32.20
2017-12-30T08:52:19.823Z,32.20
2017-12-30T08:54:50.914Z,32.20
2017-12-30T08:57:21.497Z,32.20
2017-12-30T08:59:52.640Z,32.20
2017-12-30T09:02:22.982Z,32.20
2017-12-30T09:04:54.061Z,32.00
2017-12-30T09:07:24.399Z,32.00
2017-12-30T09:09:54.959Z,32.00
2017-12-30T09:12:26.130Z,32.00
2017-12-30T09:14:56.517Z,32.00
2017-12-30T09:17:26.851Z,32.00
2017-12-30T09:19:57.260Z,32.00
2017-12-30T09:22:27.758Z,32.00
2017-12-30T09:24:58.142Z,32.00
2017-12-30T09:27:29.488Z,31.80
2017-12-30T09:30:00.736Z,31.80
2017-12-30T09:32:31.988Z,31.70
2017-12-30T09:35:02.393Z,31.70
2017-12-30T09:37:32.730Z,31.60
2017-12-30T09:40:04.036Z,31.50
2017-12-30T09:42:35.172Z,31.50
2017-12-30T09:45:05.723Z,31.50
2017-12-30T09:47:36.025Z,31.50
2017-12-30T09:50:06.324Z,31.50
2017-12-30T09:52:36.645Z,31.50
2017-12-30T09:55:07.042Z,31.50
2017-12-30T09:57:38.468Z,31.50
2017-12-30T10:00:08.813Z,31.50
2017-12-30T10:02:39.195Z,31.60
2017-12-30T10:05:09.583Z,31.60
2017-12-30T10:07:40.683Z,31.60
2017-12-30T10:10:11.322Z,31.60
2017-12-30T10:12:41.680Z,31.50
2017-12-30T10:15:12.912Z,31.30
2017-12-30T10:17:44.028Z,31.20
2017-12-30T10:20:15.247Z,31.10
2017-12-30T10:22:45.571Z,31.10
2017-12-30T10:25:16.033Z,30.90
2017-12-30T10:27:46.554Z,30.80
2017-12-30T10:30:16.919Z,30.60
2017-12-30T10:32:48.028Z,30.50
2017-12-30T10:35:18.426Z,30.50
2017-12-30T10:37:48.750Z,30.50
2017-12-30T10:40:19.436Z,30.50
2017-12-30T10:42:50.638Z,30.50
2017-12-30T10:45:21.204Z,30.50
2017-12-30T10:47:51.605Z,30.50
2017-12-30T10:50:21.898Z,30.40
2017-12-30T10:52:52.268Z,30.40
2017-12-30T10:55:22.615Z,30.30
2017-12-30T10:57:53.949Z,30.20
2017-12-30T11:00:24.452Z,30.20
2017-12-30T11:02:54.790Z,30.20
2017-12-30T11:05:25.206Z,30.20
2017-12-30T11:07:55.674Z,30.20
2017-12-30T11:10:27.003Z,30.10
2017-12-30T11:12:57.402Z,30.10
2017-12-30T11:15:27.958Z,30.10
2017-12-30T11:17:59.105Z,30.10
2017-12-30T11:20:30.247Z,30.00
2017-12-30T11:23:00.572Z,30.00
2017-12-30T11:25:30.997Z,29.90
2017-12-30T11:28:01.524Z,29.90
2017-12-30T11:30:32.648Z,29.80
2017-12-30T11:33:03.300Z,29.80
2017-12-30T11:35:33.634Z,29.70
2017-12-30T11:38:04.852Z,29.70
2017-12-30T11:40:35.202Z,29.70
2017-12-30T11:43:06.314Z,29.60
2017-12-30T11:45:36.695Z,29.60
2017-12-30T11:48:07.002Z,29.60
2017-12-30T11:50:38.140Z,29.60
2017-12-30T11:53:09.235Z,29.60
2017-12-30T11:55:39.586Z,29.60
2017-12-30T11:58:10.125Z,29.50
2017-12-30T12:00:40.528Z,29.50
2017-12-30T12:03:12.006Z,29.50
2017-12-30T12:05:43.187Z,29.50
2017-12-30T12:08:13.534Z,29.50
2017-12-30T12:10:43.910Z,29.50
2017-12-30T12:13:15.046Z,29.50
2017-12-30T12:15:46.355Z,29.50
2017-12-30T12:18:16.682Z,29.50
2017-12-30T12:20:46.984Z,29.50
2017-12-30T12:23:17.319Z,29.50
2017-12-30T12:25:47.735Z,29.50
2017-12-30T12:28:18.320Z,29.50
2017-12-30T12:30:49.431Z,29.50
2017-12-30T12:33:19.990Z,29.50
2017-12-30T12:35:51.084Z,29.50
2017-12-30T12:38:21.404Z,29.50
2017-12-30T12:40:51.749Z,29.50
2017-12-30T12:43:22.101Z,29.50
2017-12-30T12:45:52.633Z,29.50
2017-12-30T12:48:23.017Z,29.40
2017-12-30T12:50:53.335Z,29.40
2017-12-30T12:53:23.693Z,29.40
2017-12-30T12:55:54.026Z,29.40
2017-12-30T12:58:24.371Z,29.40
2017-12-30T13:00:55.496Z,29.40
2017-12-30T13:03:26.030Z,29.40
2017-12-30T13:05:57.112Z,29.30
2017-12-30T13:08:27.498Z,29.30
2017-12-30T13:10:58.600Z,29.30
2017-12-30T13:13:28.951Z,29.20
2017-12-30T13:15:59.459Z,29.20
2017-12-30T13:18:29.769Z,29.20
2017-12-30T13:21:00.344Z,29.20
2017-12-30T13:23:30.639Z,29.20
2017-12-30T13:26:00.964Z,29.20
2017-12-30T13:28:31.311Z,29.20
2017-12-30T13:31:01.678Z,29.20
2017-12-30T13:33:32.272Z,29.20
2017-12-30T13:36:02.643Z,29.20
2017-12-30T13:38:32.980Z,29.20
2017-12-30T13:41:03.303Z,29.20
2017-12-30T13:43:33.655Z,29.20
2017-12-30T13:46:04.203Z,29.20
2017-12-30T13:48:34.508Z,29.20
2017-12-30T13:51:04.915Z,29.20
2017-12-30T13:53:36.089Z,29.20
2017-12-30T13:56:06.432Z,29.20
2017-12-30T13:58:37.543Z,29.10
2017-12-30T14:01:07.911Z,29.10
2017-12-30T14:03:39.236Z,29.20
2017-12-30T14:06:10.402Z,29.20
2017-12-30T14:08:40.729Z,29.10
2017-12-30T14:11:11.048Z,29.20
2017-12-30T14:13:42.160Z,29.20
2017-12-30T14:16:12.499Z,29.10
2017-12-30T14:18:43.623Z,29.10
2017-12-30T14:21:19.674Z,29.10
2017-12-30T14:23:50.020Z,29.10
2017-12-30T14:26:21.155Z,29.00
2017-12-30T14:28:51.512Z,29.00
2017-12-30T14:31:22.662Z,28.90
2017-12-30T14:33:53.161Z,28.90
2017-12-30T14:36:24.324Z,28.70
2017-12-30T14:38:55.492Z,28.60
2017-12-30T14:41:25.831Z,28.60
2017-12-30T14:44:01.666Z,28.50
2017-12-30T14:46:32.364Z,28.40
2017-12-30T14:49:03.469Z,28.30
2017-12-30T14:51:34.031Z,28.30
2017-12-30T14:54:05.143Z,28.30
2017-12-30T14:56:35.500Z,28.20
2017-12-30T14:59:05.856Z,28.20
2017-12-30T15:01:36.269Z,28.20
2017-12-30T15:04:06.811Z,28.20
2017-12-30T15:06:37.160Z,28.20
2017-12-30T15:09:07.733Z,28.10
2017-12-30T15:11:39.179Z,28.00
2017-12-30T15:14:09.501Z,28.00
2017-12-30T15:16:39.886Z,28.00
2017-12-30T15:19:10.247Z,28.00
2017-12-30T15:21:42.084Z,27.90
2017-12-30T15:24:12.439Z,27.90
2017-12-30T15:26:42.861Z,27.90
2017-12-30T15:29:13.199Z,27.90
2017-12-30T15:32:00.810Z,27.90
2017-12-30T15:34:31.351Z,28.00
2017-12-30T15:37:01.800Z,27.90
2017-12-30T15:39:32.935Z,27.90
2017-12-30T15:42:04.083Z,27.90
2017-12-30T15:44:35.160Z,27.80
2017-12-30T15:47:05.841Z,27.80
2017-12-30T15:49:37.029Z,27.80
2017-12-30T15:52:07.579Z,27.70
2017-12-30T15:54:37.886Z,27.80
2017-12-30T15:57:08.234Z,27.70
2017-12-30T15:59:38.626Z,27.70
2017-12-30T16:02:09.047Z,27.70
2017-12-30T16:04:39.646Z,27.70
2017-12-30T16:07:10.811Z,27.60
2017-12-30T16:09:41.926Z,27.60
2017-12-30T16:12:12.360Z,27.60
2017-12-30T16:14:42.750Z,27.60
2017-12-30T16:17:13.123Z,27.50
2017-12-30T16:19:44.481Z,27.60
2017-12-30T16:22:15.052Z,27.50
2017-12-30T16:24:45.367Z,27.60
2017-12-30T16:27:15.823Z,27.50
2017-12-30T16:29:46.188Z,27.50
2017-12-30T16:32:17.513Z,27.40
2017-12-30T16:34:47.904Z,27.40
2017-12-30T16:37:19.068Z,27.50
2017-12-30T16:39:49.496Z,27.50
2017-12-30T16:42:19.887Z,27.60
2017-12-30T16:44:50.328Z,27.60
2017-12-30T16:47:20.712Z,27.60
2017-12-30T16:49:51.096Z,27.70
2017-12-30T16:52:21.715Z,27.70
2017-12-30T16:54:52.103Z,27.70
2017-12-30T16:57:22.494Z,27.70
2017-12-30T16:59:52.860Z,27.60
2017-12-30T17:02:23.263Z,27.60
2017-12-30T17:04:54.432Z,27.60
2017-12-30T17:07:24.788Z,27.60
2017-12-30T17:09:55.246Z,27.60
2017-12-30T17:12:26.417Z,27.60
2017-12-30T17:14:57.566Z,26.90
2017-12-30T17:17:27.902Z,27.60
2017-12-30T17:19:58.276Z,27.60
2017-12-30T17:22:28.860Z,27.60
2017-12-30T17:24:59.217Z,27.60
2017-12-30T17:27:29.863Z,27.60
2017-12-30T17:30:00.285Z,27.60
2017-12-30T17:32:31.402Z,27.60
2017-12-30T17:35:01.711Z,27.60
2017-12-30T17:37:32.058Z,27.60
2017-12-30T17:40:02.612Z,27.60
2017-12-30T17:42:33.712Z,27.60
2017-12-30T17:45:04.362Z,27.60
2017-12-30T17:47:34.725Z,27.50
2017-12-30T17:50:05.828Z,27.50
2017-12-30T17:52:36.184Z,27.50
2017-12-30T17:55:07.294Z,27.50
2017-12-30T17:57:37.633Z,27.50
2017-12-30T18:00:08.781Z,27.50
2017-12-30T18:02:39.198Z,27.40
2017-12-30T18:05:09.676Z,27.40
2017-12-30T18:07:40.470Z,27.40
2017-12-30T18:10:11.581Z,27.40
2017-12-30T18:12:42.832Z,27.30
2017-12-30T18:15:13.133Z,27.30
2017-12-30T18:17:43.468Z,27.30
2017-12-30T18:20:13.787Z,27.20
2017-12-30T18:22:44.685Z,27.20
2017-12-30T18:25:15.527Z,27.10
2017-12-30T18:27:47.576Z,27.10
2017-12-30T18:30:18.630Z,27.20
2017-12-30T18:32:50.149Z,27.20
2017-12-30T18:35:21.529Z,27.20
2017-12-30T18:37:52.201Z,27.20
2017-12-30T18:40:23.139Z,27.20
2017-12-30T18:42:53.569Z,27.10
2017-12-30T18:45:24.143Z,27.10
2017-12-30T18:47:54.471Z,27.10
2017-12-30T18:50:25.628Z,27.00
2017-12-30T18:52:56.797Z,27.00
2017-12-30T18:55:27.103Z,27.00
2017-12-30T18:57:58.333Z,27.00
2017-12-30T19:00:29.431Z,27.00
2017-12-30T19:03:02.615Z,27.00
2017-12-30T19:05:32.919Z,27.00
2017-12-30T19:08:03.274Z,27.00
2017-12-30T19:10:33.737Z,27.00
2017-12-30T19:13:04.874Z,27.00
2017-12-30T19:15:35.405Z,27.00
2017-12-30T19:18:05.746Z,27.00
2017-12-30T19:20:36.886Z,27.10
2017-12-30T19:23:08.200Z,27.10
2017-12-30T19:25:38.587Z,27.10
2017-12-30T19:28:09.292Z,27.10
2017-12-30T19:30:40.429Z,27.10
2017-12-30T19:33:11.516Z,27.10
2017-12-30T19:35:41.832Z,27.10
2017-12-30T19:38:12.211Z,27.10
2017-12-30T19:40:42.606Z,27.20
2017-12-30T19:43:13.013Z,27.10
2017-12-30T19:45:43.767Z,27.20
2017-12-30T19:48:14.119Z,27.20
2017-12-30T19:50:44.518Z,27.10
2017-12-30T19:53:14.842Z,27.10
2017-12-30T19:55:45.180Z,27.00
2017-12-30T19:58:15.728Z,27.10
2017-12-30T20:00:46.070Z,27.00
2017-12-30T20:03:17.382Z,27.00
2017-12-30T20:05:47.773Z,27.00
2017-12-30T20:08:18.091Z,27.10
2017-12-30T20:10:48.447Z,27.10
2017-12-30T20:13:18.774Z,27.20
2017-12-30T20:15:49.338Z,27.20
2017-12-30T20:18:20.447Z,27.20
2017-12-30T20:20:50.817Z,27.20
2017-12-30T20:23:21.906Z,27.30
2017-12-30T20:25:52.221Z,27.20
2017-12-30T20:28:22.651Z,27.30
2017-12-30T20:30:53.796Z,27.40
2017-12-30T20:33:24.397Z,27.40
2017-12-30T20:35:54.771Z,27.40
2017-12-30T20:38:25.156Z,27.40
2017-12-30T20:40:55.490Z,27.40
2017-12-30T20:43:25.883Z,27.40
2017-12-30T20:45:57.176Z,27.40
2017-12-30T20:48:27.500Z,27.40
2017-12-30T20:50:58.035Z,27.40
2017-12-30T20:53:29.178Z,27.30
2017-12-30T20:55:59.508Z,27.30
2017-12-30T20:58:29.854Z,27.30
2017-12-30T21:01:01.415Z,27.30
2017-12-30T21:03:32.590Z,27.30
2017-12-30T21:06:03.751Z,27.30
2017-12-30T21:08:34.122Z,27.30
2017-12-30T21:11:04.505Z,27.30
2017-12-30T21:13:35.876Z,27.30
2017-12-30T21:16:06.387Z,27.30
2017-12-30T21:18:36.701Z,27.30
2017-12-30T21:21:07.307Z,27.30
2017-12-30T21:23:37.705Z,27.30
2017-12-30T21:26:08.039Z,27.30
2017-12-30T21:28:39.131Z,27.30
2017-12-30T21:31:09.467Z,27.30
2017-12-30T21:33:40.029Z,27.30
2017-12-30T21:36:11.176Z,27.20
2017-12-30T21:38:42.314Z,27.20
2017-12-30T21:41:13.474Z,27.20
2017-12-30T21:43:44.643Z,27.20
2017-12-30T21:46:15.323Z,27.20
2017-12-30T21:48:46.431Z,27.20
2017-12-30T21:51:16.932Z,27.20
2017-12-30T21:53:47.231Z,27.20
2017-12-30T21:56:18.303Z,27.10
2017-12-30T21:58:48.650Z,27.10
2017-12-30T22:01:19.044Z,27.10
2017-12-30T22:03:49.623Z,27.10
2017-12-30T22:06:20.759Z,27.00
2017-12-30T22:08:51.294Z,27.00
2017-12-30T22:11:21.621Z,26.90
2017-12-30T22:13:52.012Z,26.80
2017-12-30T22:16:22.339Z,26.80
2017-12-30T22:18:52.687Z,26.80
2017-12-30T22:21:23.329Z,26.80
2017-12-30T22:23:53.654Z,26.80
2017-12-30T22:26:24.114Z,26.80
2017-12-30T22:28:55.194Z,26.70
2017-12-30T22:31:25.559Z,26.70
2017-12-30T22:33:58.456Z,26.70
2017-12-30T22:36:29.593Z,26.80
2017-12-30T22:39:00.092Z,26.80
2017-12-30T22:41:30.466Z,26.80
2017-12-30T22:44:01.618Z,26.80
2017-12-30T22:46:31.935Z,26.80
2017-12-30T22:49:02.330Z,26.80
2017-12-30T22:51:32.960Z,26.90
2017-12-30T22:54:03.331Z,26.90
2017-12-30T22:56:33.749Z,26.90
2017-12-30T22:59:04.184Z,26.90
2017-12-30T23:01:34.572Z,26.90
2017-12-30T23:04:05.012Z,26.90
2017-12-30T23:06:36.219Z,27.00
2017-12-30T23:09:07.255Z,27.00
2017-12-30T23:11:37.639Z,27.00
2017-12-30T23:14:08.076Z,27.00
2017-12-30T23:16:38.420Z,27.00
2017-12-30T23:19:08.800Z,27.00
2017-12-30T23:21:40.066Z,26.90
2017-12-30T23:24:10.436Z,27.00
2017-12-30T23:26:40.799Z,27.00
2017-12-30T23:29:11.959Z,27.00
2017-12-30T23:31:42.347Z,27.00
2017-12-30T23:34:12.771Z,27.00
2017-12-30T23:36:43.136Z,27.00
2017-12-30T23:39:13.921Z,27.00
2017-12-30T23:41:44.240Z,27.00
2017-12-30T23:44:14.568Z,27.00
2017-12-30T23:46:44.947Z,27.00
2017-12-30T23:49:15.305Z,27.00
2017-12-30T23:51:45.663Z,27.00
2017-12-30T23:54:16.058Z,26.90
2017-12-30T23:56:46.728Z,26.90
2017-12-30T23:59:17.923Z,26.90
